Time;durP1;ratioP1;P1;durP2;ratioP2;P2;SDS_P1;SDS_P2;PMS_P1;PMS_P2;Temp;Humidity;BMP_temperature;BMP_pressure;BME280_temperature;BME280_humidity;BME280_pressure;Samples;Min_cycle;Max_cycle;Signal;HPM_P1;HPM_P2
2023/04/24 00:01:17;;;;;;;0.77;0.77;;;;;;;15.63;88.84;99305.00;5061349;28;20702;-60
2023/04/24 00:03:42;;;;;;;0.63;0.35;;;;;;;15.70;87.41;99304.84;5066340;28;20032;-60
2023/04/24 00:06:08;;;;;;;0.95;0.70;;;;;;;15.53;87.85;99303.28;5068358;28;20036;-60
2023/04/24 00:08:34;;;;;;;0.80;0.50;;;;;;;15.72;87.23;99288.91;5068741;28;20032;-60
2023/04/24 00:11:00;;;;;;;1.55;0.80;;;;;;;15.38;87.99;99285.75;5066326;28;20284;-61
2023/04/24 00:13:28;;;;;;;1.15;0.80;;;;;;;15.41;88.81;99279.47;5068896;28;20024;-61
2023/04/24 00:15:54;;;;;;;0.38;0.38;;;;;;;15.57;88.92;99271.41;5071798;28;20033;-61
2023/04/24 00:18:19;;;;;;;0.60;0.60;;;;;;;15.94;86.98;99270.94;5072251;28;20043;-60
2023/04/24 00:20:45;;;;;;;0.95;0.65;;;;;;;15.91;87.25;99260.91;5069858;28;20044;-60
2023/04/24 00:23:10;;;;;;;0.95;0.70;;;;;;;15.95;87.32;99272.44;5061417;28;20064;-61
2023/04/24 00:25:36;;;;;;;0.70;0.50;;;;;;;16.03;86.21;99265.66;5070938;28;20487;-61
2023/04/24 00:28:02;;;;;;;1.33;0.70;;;;;;;16.01;86.31;99265.31;5072029;28;20036;-61
2023/04/24 00:30:27;;;;;;;1.00;0.70;;;;;;;15.79;87.05;99271.69;5071310;28;20098;-57
2023/04/24 00:32:53;;;;;;;1.08;0.70;;;;;;;15.98;85.84;99270.84;5068124;28;20025;-60
2023/04/24 00:35:19;;;;;;;0.57;0.57;;;;;;;15.92;85.80;99265.16;5070558;28;20036;-61
2023/04/24 00:37:45;;;;;;;0.88;0.57;;;;;;;15.47;87.35;99272.41;5072036;28;20024;-60
2023/04/24 00:40:11;;;;;;;1.25;0.60;;;;;;;15.35;88.40;99257.50;5068079;28;20051;-61
2023/04/24 00:42:37;;;;;;;1.85;1.08;;;;;;;15.01;90.25;99259.03;5068002;28;20032;-60
2023/04/24 00:45:04;;;;;;;1.85;0.93;;;;;;;15.25;89.80;99260.47;5072278;28;20139;-61
2023/04/24 00:47:30;;;;;;;1.45;0.90;;;;;;;15.53;88.20;99259.09;5074419;28;20047;-60
2023/04/24 00:49:56;;;;;;;1.08;0.70;;;;;;;15.49;87.61;99258.41;5074368;28;20047;-60
2023/04/24 00:52:24;;;;;;;0.88;0.70;;;;;;;15.39;88.11;99265.56;5079592;28;20028;-61
2023/04/24 00:54:49;;;;;;;2.17;0.70;;;;;;;15.29;88.44;99250.31;5074735;28;20147;-60
2023/04/24 00:57:16;;;;;;;1.00;0.65;;;;;;;15.27;88.58;99258.09;5062795;28;20108;-61
2023/04/24 00:59:42;;;;;;;1.23;0.43;;;;;;;14.94;90.27;99251.78;5071816;28;20539;-60
2023/04/24 01:02:10;;;;;;;0.65;0.60;;;;;;;15.07;89.90;99257.34;5071939;28;20044;-61
2023/04/24 01:04:36;;;;;;;0.63;0.50;;;;;;;15.15;89.52;99245.97;5071285;28;20036;-61
2023/04/24 01:07:09;;;;;;;0.55;0.47;;;;;;;15.46;88.29;99241.03;5071743;28;20032;-61
2023/04/24 01:09:35;;;;;;;;;;;;;;;15.21;89.55;99246.22;5068104;28;20047;-60
2023/04/24 01:12:01;;;;;;;0.70;0.60;;;;;;;15.32;89.57;99244.81;5064418;28;19912;-60
2023/04/24 01:14:26;;;;;;;1.45;0.68;;;;;;;15.11;88.82;99249.91;5069285;28;20559;-60
2023/04/24 01:16:52;;;;;;;1.55;1.00;;;;;;;15.09;90.16;99244.91;5071139;28;20029;-61
2023/04/24 01:19:18;;;;;;;1.30;0.70;;;;;;;15.29;88.99;99253.78;5086944;28;20032;-60
2023/04/24 01:21:47;;;;;;;0.75;0.60;;;;;;;15.41;88.24;99254.31;5063038;28;20161;-59
2023/04/24 01:24:12;;;;;;;1.65;0.88;;;;;;;15.25;88.68;99260.47;5069822;28;20050;-59
2023/04/24 01:26:38;;;;;;;0.90;0.65;;;;;;;15.34;87.76;99253.28;5062930;28;20665;-60
2023/04/24 01:29:03;;;;;;;0.95;0.60;;;;;;;15.14;88.54;99251.78;5086520;28;20147;-59
2023/04/24 01:31:30;;;;;;;1.08;0.45;;;;;;;15.24;87.55;99243.44;5077066;28;20048;-60
2023/04/24 01:33:56;;;;;;;1.02;0.70;;;;;;;15.33;87.76;99235.47;5076090;28;20104;-58
2023/04/24 01:36:22;;;;;;;0.90;0.63;;;;;;;15.51;86.50;99242.47;5076958;28;20467;-61
2023/04/24 01:38:47;;;;;;;0.63;0.60;;;;;;;15.38;87.05;99234.97;5067499;28;20042;-59
2023/04/24 01:41:13;;;;;;;0.95;0.70;;;;;;;15.55;86.00;99243.16;5068302;28;20028;-58
2023/04/24 01:43:39;;;;;;;0.80;0.57;;;;;;;15.52;85.08;99219.59;5069289;28;20056;-58
2023/04/24 01:46:04;;;;;;;1.23;0.68;;;;;;;15.32;85.91;99223.09;5076211;28;20035;-59
2023/04/24 01:48:31;;;;;;;0.60;0.50;;;;;;;15.34;86.32;99225.38;5059226;28;20406;-58
2023/04/24 01:50:57;;;;;;;0.68;0.38;;;;;;;15.18;86.12;99228.81;5076380;28;20034;-60
2023/04/24 01:53:22;;;;;;;0.70;0.70;;;;;;;15.15;86.05;99223.50;5073036;28;20398;-59
2023/04/24 01:55:48;;;;;;;1.70;0.70;;;;;;;14.86;86.85;99228.75;5089940;28;20035;-58
2023/04/24 01:58:14;;;;;;;1.95;0.40;;;;;;;14.88;87.98;99222.91;5068405;28;20032;-60
2023/04/24 02:00:40;;;;;;;0.50;0.50;;;;;;;15.01;87.09;99219.13;5060947;28;20438;-59
2023/04/24 02:03:05;;;;;;;0.50;0.30;;;;;;;15.14;86.41;99213.81;5070194;28;20032;-58
2023/04/24 02:05:31;;;;;;;0.32;0.32;;;;;;;15.21;85.75;99219.84;5069990;28;20033;-59
2023/04/24 02:07:56;;;;;;;0.40;0.32;;;;;;;15.18;85.93;99214.50;5069071;28;20032;-59
2023/04/24 02:10:22;;;;;;;1.20;0.52;;;;;;;15.29;85.09;99209.63;5063153;28;20039;-59
2023/04/24 02:12:47;;;;;;;0.75;0.70;;;;;;;15.28;85.10;99210.78;5063437;28;20462;-59
2023/04/24 02:15:14;;;;;;;0.88;0.55;;;;;;;15.12;85.85;99208.03;5069305;28;20394;-59
2023/04/24 02:17:40;;;;;;;0.30;0.30;;;;;;;15.16;85.77;99219.56;5068778;28;20021;-58
2023/04/24 02:20:07;;;;;;;0.30;0.30;;;;;;;15.39;84.71;99211.31;5066119;28;20028;-59
2023/04/24 02:22:35;;;;;;;0.73;0.40;;;;;;;15.19;84.87;99210.63;5081961;28;20035;-60
2023/04/24 02:25:01;;;;;;;0.43;0.40;;;;;;;15.12;85.09;99221.59;5088601;28;20040;-58
2023/04/24 02:27:30;;;;;;;0.60;0.40;;;;;;;15.22;84.85;99229.53;5105675;28;20454;-59
2023/04/24 02:29:56;;;;;;;0.70;0.43;;;;;;;15.04;85.17;99217.53;5085416;28;20391;-60
2023/04/24 02:32:21;;;;;;;0.15;0.10;;;;;;;14.86;86.02;99223.31;5091479;28;20043;-58
2023/04/24 02:34:47;;;;;;;0.68;0.47;;;;;;;14.76;86.27;99226.22;5090753;28;20044;-60
2023/04/24 02:37:12;;;;;;;0.30;0.30;;;;;;;14.81;86.97;99231.94;5068893;28;20127;-60
2023/04/24 02:39:38;;;;;;;0.35;0.32;;;;;;;15.14;84.51;99230.06;5064459;28;20032;-58
2023/04/24 02:42:03;;;;;;;0.32;0.32;;;;;;;15.09;83.54;99223.22;5056026;28;20090;-61
2023/04/24 02:44:32;;;;;;;0.80;0.68;;;;;;;14.98;84.90;99222.66;5066134;28;20079;-60
2023/04/24 02:46:58;;;;;;;0.50;0.45;;;;;;;15.05;84.11;99216.34;5062823;28;20086;-60
2023/04/24 02:49:23;;;;;;;0.35;0.35;;;;;;;14.98;84.09;99219.94;5063424;28;20032;-58
2023/04/24 02:51:49;;;;;;;0.20;0.20;;;;;;;14.99;84.06;99213.34;5067914;28;20038;-58
2023/04/24 02:54:14;;;;;;;0.40;0.40;;;;;;;14.92;84.37;99216.22;5085487;28;20063;-59
2023/04/24 02:56:40;;;;;;;0.25;0.25;;;;;;;14.84;83.97;99216.78;5062408;28;20065;-59
2023/04/24 02:59:07;;;;;;;0.35;0.35;;;;;;;14.66;84.00;99210.94;5069713;28;20044;-60
2023/04/24 03:01:34;;;;;;;0.82;0.50;;;;;;;14.79;83.65;99209.91;5062230;28;20035;-58
2023/04/24 03:03:59;;;;;;;0.85;0.40;;;;;;;14.74;83.82;99206.91;5063377;28;20036;-59
2023/04/24 03:06:26;;;;;;;0.47;0.30;;;;;;;14.63;84.37;99211.78;5068270;28;20512;-59
2023/04/24 03:08:55;;;;;;;0.35;0.25;;;;;;;14.82;82.78;99208.31;5066964;28;20074;-61
2023/04/24 03:11:20;;;;;;;0.20;0.20;;;;;;;14.91;82.23;99213.91;5066146;28;20025;-60
2023/04/24 03:13:46;;;;;;;0.40;0.20;;;;;;;14.74;82.56;99215.81;5062000;28;20033;-60
2023/04/24 03:16:11;;;;;;;2.08;0.57;;;;;;;14.79;81.80;99215.31;5069400;28;20020;-58
2023/04/24 03:18:37;;;;;;;0.95;0.50;;;;;;;14.84;81.29;99209.41;5069400;28;20040;-60
2023/04/24 03:21:04;;;;;;;0.43;0.38;;;;;;;14.80;80.76;99202.53;5063242;28;20170;-57
2023/04/24 03:23:30;;;;;;;0.10;0.10;;;;;;;14.82;80.66;99203.66;5090098;28;20452;-60
2023/04/24 03:25:56;;;;;;;0.20;0.20;;;;;;;14.58;81.83;99201.41;5067522;28;20127;-61
2023/04/24 03:28:21;;;;;;;0.17;0.17;;;;;;;14.61;81.88;99200.59;5065794;28;20043;-58
2023/04/24 03:30:53;;;;;;;0.38;0.38;;;;;;;14.72;81.35;99212.75;5051899;28;20052;-57
2023/04/24 03:33:20;;;;;;;0.20;0.20;;;;;;;14.57;81.69;99210.75;5067407;28;20121;-59
2023/04/24 03:35:55;;;;;;;0.40;0.40;;;;;;;14.53;81.98;99207.34;5068204;28;20028;-60
2023/04/24 03:38:21;;;;;;;0.10;0.10;;;;;;;14.45;81.85;99199.34;5069673;28;20033;-61
2023/04/24 03:40:46;;;;;;;1.15;0.32;;;;;;;14.61;81.50;99208.72;5061048;28;20525;-60
2023/04/24 03:43:35;;;;;;;0.50;0.30;;;;;;;14.73;80.48;99205.41;5055249;28;20028;-59
2023/04/24 03:46:05;;;;;;;0.40;0.40;;;;;;;14.46;81.90;99197.38;5056621;28;20044;-61
2023/04/24 03:48:35;;;;;;;1.13;0.28;;;;;;;14.31;82.57;99196.91;5063727;28;20036;-60
2023/04/24 03:51:01;;;;;;;1.27;0.30;;;;;;;14.30;82.45;99203.50;5085279;28;20120;-60
2023/04/24 03:53:28;;;;;;;0.28;0.28;;;;;;;14.30;82.58;99202.75;5048916;28;20501;-61
2023/04/24 03:55:58;;;;;;;0.30;0.20;;;;;;;14.40;81.63;99207.94;5065658;28;20044;-58
2023/04/24 03:58:24;;;;;;;0.40;0.40;;;;;;;14.25;82.35;99209.38;5084700;28;20032;-60
2023/04/24 04:00:51;;;;;;;0.28;0.25;;;;;;;14.23;82.74;99202.81;5045836;28;20033;-60
2023/04/24 04:03:38;;;;;;;1.98;0.63;;;;;;;14.13;82.48;99201.84;5051921;28;20515;-60
2023/04/24 04:06:04;;;;;;;2.83;0.50;;;;;;;13.94;84.04;99199.09;5084821;28;20051;-60
2023/04/24 04:08:33;;;;;;;0.20;0.20;;;;;;;14.23;82.97;99202.81;5067283;28;20036;-60
2023/04/24 04:10:58;;;;;;;1.17;0.57;;;;;;;14.31;82.33;99205.03;5063227;28;20029;-60
2023/04/24 04:13:24;;;;;;;0.28;0.28;;;;;;;14.21;82.27;99203.25;5060156;28;20017;-59
2023/04/24 04:15:50;;;;;;;0.30;0.30;;;;;;;14.24;81.75;99210.56;5065595;28;20029;-60
2023/04/24 04:18:15;;;;;;;0.30;0.30;;;;;;;14.10;82.15;99199.19;5067901;28;20059;-61
2023/04/24 04:20:41;;;;;;;0.32;0.10;;;;;;;14.12;80.82;99202.25;5059561;28;20392;-60
2023/04/24 04:23:08;;;;;;;1.10;0.32;;;;;;;13.90;81.80;99190.28;5075417;28;20016;-58
2023/04/24 04:25:54;;;;;;;0.25;0.25;;;;;;;14.03;80.78;99200.09;5047187;28;20121;-61
2023/04/24 04:28:24;;;;;;;0.40;0.30;;;;;;;14.11;80.55;99203.44;5054155;28;21026;-61
2023/04/24 04:30:57;;;;;;;0.10;0.10;;;;;;;13.99;81.11;99207.53;5062012;28;20082;-60
2023/04/24 04:33:23;;;;;;;0.65;0.50;;;;;;;14.00;80.85;99210.97;5054225;28;20029;-61
2023/04/24 04:35:51;;;;;;;0.28;0.28;;;;;;;13.96;79.80;99215.69;5051123;28;20113;-58
2023/04/24 04:38:18;;;;;;;0.17;0.17;;;;;;;14.03;79.40;99210.91;5058595;28;20036;-61
2023/04/24 04:41:07;;;;;;;0.70;0.25;;;;;;;14.10;78.33;99210.03;5056956;28;20032;-58
2023/04/24 04:43:34;;;;;;;0.17;0.17;;;;;;;13.94;79.26;99209.91;5067783;28;20021;-61
2023/04/24 04:46:00;;;;;;;0.25;0.25;;;;;;;14.03;78.31;99215.56;5059981;28;20036;-61
2023/04/24 04:48:48;;;;;;;0.55;0.40;;;;;;;13.96;78.47;99215.69;5068393;28;20044;-61
2023/04/24 04:51:13;;;;;;;0.50;0.28;;;;;;;14.13;76.85;99223.50;5056723;28;20122;-58
2023/04/24 04:53:39;;;;;;;0.20;0.20;;;;;;;13.83;77.52;99212.03;5061253;28;20062;-61
2023/04/24 04:56:06;;;;;;;0.40;0.40;;;;;;;13.70;78.38;99213.81;5063655;28;20032;-60
2023/04/24 04:58:44;;;;;;;0.20;0.20;;;;;;;13.68;79.12;99213.44;5049774;28;20112;-59
2023/04/24 05:01:13;;;;;;;0.10;0.10;;;;;;;13.89;78.51;99213.88;5060799;28;20040;-57
2023/04/24 05:03:41;;;;;;;0.20;0.20;;;;;;;14.03;78.05;99213.63;5061520;28;20029;-60
2023/04/24 05:06:09;;;;;;;0.40;0.38;;;;;;;13.95;77.33;99209.53;5059376;28;20131;-61
2023/04/24 05:08:37;;;;;;;0.30;0.30;;;;;;;13.73;78.19;99212.97;5080909;22;20040;-60
2023/04/24 05:11:06;;;;;;;0.52;0.40;;;;;;;13.88;78.04;99212.31;5100422;28;21124;-58
2023/04/24 05:13:32;;;;;;;0.22;0.20;;;;;;;13.95;78.04;99214.94;5097346;27;20030;-57
2023/04/24 05:15:58;;;;;;;0.93;0.60;;;;;;;14.07;77.32;99210.88;5103289;28;20507;-57
2023/04/24 05:18:27;;;;;;;0.20;0.20;;;;;;;13.93;78.02;99211.09;5096856;28;20031;-57
2023/04/24 05:20:53;;;;;;;0.10;0.10;;;;;;;14.00;77.51;99211.75;5100612;28;20028;-57
2023/04/24 05:23:18;;;;;;;0.00;0.00;;;;;;;14.11;77.34;99220.44;5101165;28;20380;-60
2023/04/24 05:25:48;;;;;;;0.63;0.45;;;;;;;14.11;77.34;99217.72;5096749;27;20664;-59
2023/04/24 05:28:15;;;;;;;0.30;0.28;;;;;;;14.08;77.24;99213.16;5093686;28;20103;-60
2023/04/24 05:30:40;;;;;;;0.35;0.35;;;;;;;13.73;77.61;99212.97;5093741;27;20023;-59
2023/04/24 05:33:06;;;;;;;0.40;0.35;;;;;;;13.85;78.16;99215.09;5099432;27;20035;-53
2023/04/24 05:35:34;;;;;;;0.10;0.10;;;;;;;13.82;77.31;99213.22;5097994;28;20145;-58
2023/04/24 05:37:59;;;;;;;0.45;0.28;;;;;;;14.17;76.57;99220.72;5098911;27;20548;-59
2023/04/24 05:40:26;;;;;;;0.20;0.20;;;;;;;14.21;76.43;99216.78;5101746;28;20700;-58
2023/04/24 05:42:51;;;;;;;0.10;0.10;;;;;;;14.27;76.12;99217.88;5105178;27;20019;-56
2023/04/24 05:45:16;;;;;;;0.30;0.30;;;;;;;14.22;75.55;99210.22;5110912;27;20040;-58
2023/04/24 05:47:46;;;;;;;0.52;0.30;;;;;;;14.33;75.33;99218.94;5107917;28;20077;-60
2023/04/24 05:50:12;;;;;;;0.20;0.20;;;;;;;14.61;73.92;99225.75;5109772;28;20035;-59
2023/04/24 05:52:37;;;;;;;0.57;0.40;;;;;;;14.48;73.55;99224.84;5108121;28;20011;-59
2023/04/24 05:55:09;;;;;;;0.10;0.10;;;;;;;14.73;73.09;99229.78;5098603;28;20031;-58
2023/04/24 05:57:38;;;;;;;0.10;0.10;;;;;;;14.93;72.38;99228.59;5096737;28;20020;-59
2023/04/24 06:00:28;;;;;;;0.03;0.00;;;;;;;15.16;71.71;99220.34;5110335;28;20035;-61
2023/04/24 06:03:03;;;;;;;0.20;0.10;;;;;;;15.17;71.57;99218.41;5049421;28;20041;-55
2023/04/24 06:05:30;;;;;;;0.28;0.22;;;;;;;15.11;71.74;99218.16;5068181;28;20131;-57
2023/04/24 06:07:55;;;;;;;0.10;0.10;;;;;;;15.22;70.86;99228.75;5040682;28;20123;-54
2023/04/24 06:10:23;;;;;;;0.28;0.28;;;;;;;14.58;73.31;99223.88;5059777;28;20029;-55
2023/04/24 06:12:49;;;;;;;0.45;0.22;;;;;;;15.02;72.72;99233.47;5045718;28;20033;-54
2023/04/24 06:15:16;;;;;;;1.10;0.75;;;;;;;14.86;72.41;99234.16;5044463;28;20044;-52
2023/04/24 06:18:10;;;;;;;0.10;0.10;;;;;;;15.26;71.61;99234.84;5056741;28;20144;-59
2023/04/24 06:20:36;;;;;;;0.55;0.35;;;;;;;15.22;71.26;99236.88;5051252;28;20044;-54
2023/04/24 06:23:01;;;;;;;0.20;0.20;;;;;;;15.46;70.44;99234.84;5031811;28;20028;-56
2023/04/24 06:25:27;;;;;;;0.15;0.15;;;;;;;15.41;71.19;99230.66;5045885;28;20490;-56
2023/04/24 06:27:55;;;;;;;0.43;0.20;;;;;;;15.53;71.23;99235.44;5068218;28;20111;-57
2023/04/24 06:30:21;;;;;;;0.22;0.10;;;;;;;15.71;69.70;99240.47;5064093;28;20032;-56
2023/04/24 06:32:46;;;;;;;0.10;0.10;;;;;;;16.26;68.57;99243.72;5049552;28;20600;-56
2023/04/24 06:35:15;;;;;;;0.17;0.10;;;;;;;16.73;64.99;99240.56;5051489;28;20788;-57
2023/04/24 06:37:41;;;;;;;0.45;0.10;;;;;;;16.55;62.60;99248.47;5057849;28;20119;-57
2023/04/24 06:40:08;;;;;;;0.20;0.17;;;;;;;16.72;62.89;99247.22;5082739;27;20069;-57
2023/04/24 06:42:34;;;;;;;0.65;0.65;;;;;;;16.97;62.56;99245.34;5107706;28;20496;-58
2023/04/24 06:45:02;;;;;;;0.10;0.10;;;;;;;16.91;61.28;99243.56;5109973;28;20520;-58
2023/04/24 06:47:27;;;;;;;0.10;0.10;;;;;;;16.78;60.47;99240.06;5102443;28;20020;-56
2023/04/24 06:49:53;;;;;;;0.30;0.30;;;;;;;16.93;61.36;99246.63;5101938;28;20031;-58
2023/04/24 06:52:19;;;;;;;0.20;0.20;;;;;;;17.27;60.73;99251.44;5101634;28;20035;-56
2023/04/24 06:54:45;;;;;;;0.20;0.20;;;;;;;17.40;60.14;99242.09;5111283;28;20134;-53
2023/04/24 06:57:10;;;;;;;0.25;0.20;;;;;;;17.62;57.53;99237.56;5110357;27;20031;-57
2023/04/24 06:59:36;;;;;;;0.32;0.20;;;;;;;17.54;56.40;99246.38;5108575;28;20030;-60
2023/04/24 07:02:02;;;;;;;0.15;0.13;;;;;;;17.78;57.68;99242.91;5110802;28;20088;-53
2023/04/24 07:04:28;;;;;;;1.02;0.28;;;;;;;17.77;57.44;99243.31;5098393;28;20036;-56
2023/04/24 07:06:55;;;;;;;0.30;0.30;;;;;;;17.99;56.30;99238.72;5109745;28;20029;-56
2023/04/24 07:09:21;;;;;;;0.20;0.20;;;;;;;18.19;55.83;99246.63;5110171;28;20035;-54
2023/04/24 07:11:48;;;;;;;0.22;0.20;;;;;;;17.68;55.50;99244.00;5110500;28;20035;-58
2023/04/24 07:14:13;;;;;;;0.10;0.10;;;;;;;17.78;55.85;99251.06;5110265;28;20043;-61
2023/04/24 07:16:39;;;;;;;0.73;0.20;;;;;;;17.33;57.87;99236.88;5110709;28;20089;-60
2023/04/24 07:19:04;;;;;;;0.47;0.30;;;;;;;17.77;56.49;99235.91;5106960;28;20036;-57
2023/04/24 07:21:31;;;;;;;0.40;0.30;;;;;;;18.08;54.80;99254.41;5103547;28;20512;-58
2023/04/24 07:23:58;;;;;;;0.40;0.30;;;;;;;17.98;55.32;99259.00;5102994;28;20165;-60
2023/04/24 07:26:44;;;;;;;0.17;0.17;;;;;;;18.04;55.78;99257.22;5105132;28;20185;-60
2023/04/24 07:29:09;;;;;;;0.60;0.40;;;;;;;18.03;55.81;99255.72;5045532;28;20048;-58
2023/04/24 07:31:35;;;;;;;0.22;0.20;;;;;;;18.37;54.98;99261.16;5046967;28;20601;-56
2023/04/24 07:34:01;;;;;;;0.20;0.20;;;;;;;18.62;53.80;99254.91;5044977;28;20045;-57
2023/04/24 07:36:27;;;;;;;0.22;0.20;;;;;;;18.92;53.62;99246.00;5042167;28;20048;-57
2023/04/24 07:38:54;;;;;;;0.52;0.30;;;;;;;19.00;52.90;99262.88;5043897;28;20170;-58
2023/04/24 07:41:20;;;;;;;0.20;0.20;;;;;;;19.21;53.23;99262.88;5043063;28;20717;-58
2023/04/24 07:43:46;;;;;;;1.48;0.50;;;;;;;19.21;51.96;99273.78;5037143;28;20028;-59
2023/04/24 07:46:11;;;;;;;0.22;0.22;;;;;;;19.25;52.06;99260.78;5043018;28;20737;-57
2023/04/24 07:48:37;;;;;;;0.13;0.10;;;;;;;19.57;51.00;99276.72;5044905;28;20155;-58
2023/04/24 07:51:03;;;;;;;0.30;0.30;;;;;;;19.68;51.12;99266.16;5029097;28;20098;-58
2023/04/24 07:53:28;;;;;;;0.30;0.22;;;;;;;19.87;50.05;99269.69;5046918;28;20059;-61
2023/04/24 07:55:55;;;;;;;0.28;0.22;;;;;;;19.83;49.99;99285.47;5042158;28;20043;-58
2023/04/24 07:58:21;;;;;;;0.15;0.15;;;;;;;19.56;50.11;99277.16;5028651;28;20080;-61
2023/04/24 08:00:47;;;;;;;0.30;0.30;;;;;;;19.57;50.45;99268.53;5032430;28;20063;-55
2023/04/24 08:03:12;;;;;;;0.20;0.10;;;;;;;19.77;50.59;99274.38;5047300;28;20021;-56
2023/04/24 08:05:38;;;;;;;0.20;0.20;;;;;;;19.43;50.31;99281.97;5064627;28;20439;-61
2023/04/24 08:08:03;;;;;;;0.20;0.20;;;;;;;19.63;50.41;99279.63;5108483;28;20055;-60
2023/04/24 08:10:29;;;;;;;0.52;0.30;;;;;;;20.16;49.91;99282.97;5102080;28;20549;-58
2023/04/24 08:12:55;;;;;;;0.50;0.28;;;;;;;20.39;48.78;99285.16;5108149;28;20118;-54
2023/04/24 08:15:21;;;;;;;0.65;0.40;;;;;;;20.24;48.20;99287.75;5107204;28;20039;-59
2023/04/24 08:17:46;;;;;;;0.45;0.30;;;;;;;19.83;48.33;99281.97;5097902;28;20039;-60
2023/04/24 08:20:15;;;;;;;0.43;0.40;;;;;;;19.35;49.46;99288.91;5108382;28;20035;-58
2023/04/24 08:22:41;;;;;;;0.45;0.20;;;;;;;19.15;50.67;99288.44;5089811;28;20146;-58
2023/04/24 08:25:08;;;;;;;0.25;0.25;;;;;;;19.00;51.64;99295.63;5090681;28;20043;-58
2023/04/24 08:27:33;;;;;;;0.30;0.30;;;;;;;19.18;50.52;99293.03;5102791;28;20031;-56
2023/04/24 08:29:59;;;;;;;0.43;0.43;;;;;;;19.24;50.99;99294.72;5109173;28;20062;-58
2023/04/24 08:32:28;;;;;;;1.23;0.25;;;;;;;19.26;50.74;99300.50;5105447;28;20024;-54
2023/04/24 08:34:56;;;;;;;0.25;0.20;;;;;;;19.11;50.50;99313.16;5107992;27;20529;-61
2023/04/24 08:37:22;;;;;;;0.50;0.40;;;;;;;18.96;51.95;99311.38;5112485;28;20117;-61
2023/04/24 08:39:51;;;;;;;0.75;0.60;;;;;;;19.23;51.36;99315.06;5103703;28;20092;-58
2023/04/24 08:42:18;;;;;;;1.02;0.57;;;;;;;19.33;51.46;99313.94;5096446;28;20498;-54
2023/04/24 08:44:44;;;;;;;0.55;0.50;;;;;;;19.46;50.49;99313.84;5103407;28;20032;-58
2023/04/24 08:47:10;;;;;;;1.48;0.43;;;;;;;19.59;49.67;99306.31;5110182;28;20035;-61
2023/04/24 08:49:37;;;;;;;1.42;0.65;;;;;;;19.80;49.60;99298.06;5105336;28;20070;-54
2023/04/24 08:52:04;;;;;;;1.05;0.68;;;;;;;20.03;49.19;99304.22;5112436;28;20088;-60
2023/04/24 08:54:31;;;;;;;0.45;0.45;;;;;;;20.22;48.85;99312.03;5103617;28;20492;-58
2023/04/24 08:57:03;;;;;;;0.75;0.52;;;;;;;20.36;48.21;99307.97;5095610;28;20024;-58
2023/04/24 08:59:30;;;;;;;0.45;0.43;;;;;;;20.65;48.93;99311.03;5103856;28;20051;-61
2023/04/24 09:01:56;;;;;;;0.55;0.52;;;;;;;20.52;47.27;99310.38;5111400;28;20034;-57
2023/04/24 09:04:24;;;;;;;0.73;0.47;;;;;;;20.41;49.00;99310.84;5107322;28;20644;-61
2023/04/24 09:06:51;;;;;;;0.73;0.70;;;;;;;20.35;48.31;99320.88;5103461;27;20044;-58
2023/04/24 09:09:18;;;;;;;1.45;0.68;;;;;;;20.16;48.76;99330.22;5103718;27;20035;-57
2023/04/24 09:11:44;;;;;;;0.88;0.52;;;;;;;20.03;48.93;99331.56;5109296;28;20035;-58
2023/04/24 09:14:10;;;;;;;1.33;0.95;;;;;;;20.06;49.63;99325.94;5103820;27;20706;-57
2023/04/24 09:16:36;;;;;;;0.45;0.40;;;;;;;20.03;49.43;99331.56;5104160;27;20084;-56
2023/04/24 09:19:02;;;;;;;0.43;0.40;;;;;;;19.93;50.10;99328.03;5110999;27;20417;-58
2023/04/24 09:21:33;;;;;;;0.65;0.47;;;;;;;19.61;49.60;99329.25;5109331;28;20059;-58
2023/04/24 09:24:04;;;;;;;0.50;0.50;;;;;;;19.63;49.72;99331.53;5105476;28;20034;-56
2023/04/24 09:26:36;;;;;;;0.73;0.57;;;;;;;19.42;49.83;99333.09;5105245;28;20078;-58
2023/04/24 09:29:03;;;;;;;1.27;0.47;;;;;;;19.39;50.14;99344.16;5111244;28;20031;-57
2023/04/24 09:31:29;;;;;;;1.35;0.63;;;;;;;19.12;50.33;99341.22;5102624;28;20081;-57
2023/04/24 09:34:05;;;;;;;0.98;0.70;;;;;;;19.23;49.94;99336.13;5105519;28;20028;-55
2023/04/24 09:36:37;;;;;;;0.40;0.38;;;;;;;18.94;50.75;99328.19;5100611;28;20057;-57
2023/04/24 09:39:04;;;;;;;;;;;;;;;19.13;50.15;99334.53;5100026;28;20628;-58
2023/04/24 09:41:30;;;;;;;0.88;0.75;;;;;;;19.11;49.71;99345.91;5108677;28;19938;-58
2023/04/24 09:43:56;;;;;;;1.02;0.60;;;;;;;19.03;50.52;99330.97;5101952;27;20027;-55
2023/04/24 09:46:29;;;;;;;0.68;0.68;;;;;;;19.01;50.24;99338.13;5094014;28;20028;-58
2023/04/24 09:48:55;;;;;;;1.10;0.55;;;;;;;19.13;50.43;99343.50;5093573;28;20054;-59
2023/04/24 09:51:34;;;;;;;0.60;0.60;;;;;;;19.15;49.75;99327.44;5100718;28;20051;-57
2023/04/24 09:53:59;;;;;;;0.90;0.65;;;;;;;18.95;49.17;99342.63;5098263;28;20058;-57
2023/04/24 09:56:25;;;;;;;0.85;0.50;;;;;;;19.02;49.40;99331.44;5090498;28;20051;-55
2023/04/24 09:58:51;;;;;;;1.23;0.80;;;;;;;18.46;51.31;99328.69;5105731;28;20035;-56
2023/04/24 10:01:30;;;;;;;1.50;0.70;;;;;;;18.48;51.31;99323.56;5099896;28;20511;-57
2023/04/24 10:03:55;;;;;;;0.60;0.50;;;;;;;18.87;50.38;99336.63;5095296;28;20118;-56
2023/04/24 10:06:21;;;;;;;0.57;0.47;;;;;;;18.89;49.92;99334.97;5095246;28;20102;-58
2023/04/24 10:08:48;;;;;;;1.58;0.80;;;;;;;18.95;49.41;99340.63;5091101;28;20031;-57
2023/04/24 10:11:14;;;;;;;1.02;0.90;;;;;;;18.93;49.56;99341.06;5096045;27;20075;-55
2023/04/24 10:13:40;;;;;;;0.95;0.57;;;;;;;19.00;49.68;99337.34;5093983;28;20051;-56
2023/04/24 10:16:07;;;;;;;0.50;0.38;;;;;;;18.52;50.16;99332.41;5109922;28;20120;-57
2023/04/24 10:18:33;;;;;;;1.55;1.02;;;;;;;18.81;50.28;99352.06;5111350;28;20027;-57
2023/04/24 10:21:00;;;;;;;0.90;0.60;;;;;;;18.29;51.32;99335.47;5103652;28;20374;-58
2023/04/24 10:23:26;;;;;;;0.85;0.60;;;;;;;18.25;51.52;99334.81;5109303;28;20066;-57
2023/04/24 10:25:52;;;;;;;1.55;0.68;;;;;;;18.66;51.38;99340.09;5101145;27;20071;-58
2023/04/24 10:28:18;;;;;;;1.98;0.95;;;;;;;18.90;51.42;99349.38;5110816;28;20106;-57
2023/04/24 10:30:45;;;;;;;0.60;0.50;;;;;;;18.36;51.07;99340.69;5110154;28;20529;-58
2023/04/24 10:33:12;;;;;;;1.13;0.68;;;;;;;18.39;51.98;99348.00;5110300;27;20031;-57
2023/04/24 10:35:45;;;;;;;1.52;0.90;;;;;;;18.59;50.70;99343.06;5098408;28;20036;-56
2023/04/24 10:38:18;;;;;;;1.58;0.70;;;;;;;18.54;50.27;99346.34;5098484;28;20467;-55
2023/04/24 10:40:44;;;;;;;1.50;0.70;;;;;;;18.65;50.72;99346.75;5108664;28;20059;-57
2023/04/24 10:43:11;;;;;;;1.92;1.00;;;;;;;18.65;50.63;99344.78;5104230;27;20043;-56
2023/04/24 10:45:37;;;;;;;0.60;0.60;;;;;;;18.67;51.01;99347.06;5109253;28;20031;-55
2023/04/24 10:48:14;;;;;;;1.58;0.90;;;;;;;18.40;52.08;99344.06;5106626;28;20100;-58
2023/04/24 10:51:01;;;;;;;1.30;0.70;;;;;;;18.48;52.70;99351.59;5074139;28;20043;-58
2023/04/24 10:53:29;;;;;;;0.75;0.60;;;;;;;18.13;51.94;99360.13;5098923;28;20453;-56
2023/04/24 10:56:02;;;;;;;1.58;0.70;;;;;;;18.01;51.94;99354.25;5097267;28;20035;-56
2023/04/24 10:58:52;;;;;;;1.20;0.98;;;;;;;18.10;51.09;99347.38;5097767;28;20089;-57
2023/04/24 11:01:30;;;;;;;0.90;0.88;;;;;;;18.22;51.65;99346.56;5092361;28;20024;-58
2023/04/24 11:04:03;;;;;;;1.92;0.95;;;;;;;18.32;51.72;99348.22;5072506;28;20049;-57
2023/04/24 11:06:34;;;;;;;2.03;1.00;;;;;;;18.50;51.28;99342.97;5094457;28;20047;-56
2023/04/24 11:09:09;;;;;;;3.25;1.58;;;;;;;18.53;51.75;99340.13;5090577;22;20052;-58
2023/04/24 11:11:37;;;;;;;2.42;1.10;;;;;;;18.14;51.58;99339.84;5052900;28;20037;-56
2023/04/24 11:14:07;;;;;;;0.82;0.70;;;;;;;18.41;51.30;99338.16;5058966;28;20032;-57
2023/04/24 11:16:44;;;;;;;1.50;1.00;;;;;;;18.46;51.61;99337.66;5050830;28;20047;-55
2023/04/24 11:19:18;;;;;;;1.92;0.95;;;;;;;18.85;50.34;99336.31;5055795;28;20024;-54
2023/04/24 11:21:43;;;;;;;;;;;;;;;18.90;50.54;99338.47;5053561;28;20037;-54
2023/04/24 11:24:29;;;;;;;1.85;1.33;;;;;;;19.24;49.77;99343.88;5063531;28;19991;-57
2023/04/24 11:26:57;;;;;;;1.95;1.20;;;;;;;19.33;48.82;99351.41;5062634;28;20039;-59
2023/04/24 11:29:37;;;;;;;1.33;0.90;;;;;;;19.19;48.91;99341.72;5062397;28;20017;-58
2023/04/24 11:32:43;;;;;;;1.02;0.70;;;;;;;19.25;47.86;99339.94;5061359;28;20471;-57
2023/04/24 11:35:18;;;;;;;1.25;0.73;;;;;;;18.70;49.01;99343.44;5052371;28;20114;-55
2023/04/24 11:37:46;;;;;;;2.42;1.02;;;;;;;18.78;49.03;99342.78;5058470;28;20032;-58